Terminal Aerodrome Forecast
Issued by NWS

Home | Current Version | Previous Version | Text Only | Print | Product List | Glossary On
Versions: 1 2 3 4 5 6 7 8 9 10 11 12 13 14 15 16
869
FTUS43 KDLH 230903 AAA
TAFHIB
TAF AMD
KHIB 230903Z 2309/2406 15011G20KT P6SM VCSH FEW035 OVC060
     FM231200 16008G14KT P6SM BKN030
     FM232000 17010G18KT 5SM -RA BR BKN018 OVC025
     FM240000 16007KT 2SM -RA BR BKN012 OVC020=

USA.gov is the U.S. government's official web portal to all federal, state and local government web resources and services.